sensor_id;sensor_type;location;lat;lon;timestamp;pressure;altitude;pressure_sealevel;temperature;humidity
13235;BME280;6683;48.506;9.050;2022-10-16T00:01:14;97960.34;;;18.09;72.38
13235;BME280;6683;48.506;9.050;2022-10-16T00:04:17;97952.81;;;18.06;72.37
13235;BME280;6683;48.506;9.050;2022-10-16T00:07:19;97950.59;;;18.03;72.28
13235;BME280;6683;48.506;9.050;2022-10-16T00:10:23;97953.16;;;17.98;72.47
13235;BME280;6683;48.506;9.050;2022-10-16T00:13:25;97953.91;;;17.94;72.31
13235;BME280;6683;48.506;9.050;2022-10-16T00:16:29;97958.34;;;17.88;72.18
13235;BME280;6683;48.506;9.050;2022-10-16T00:19:31;97965.19;;;17.84;72.35
13235;BME280;6683;48.506;9.050;2022-10-16T00:22:34;97969.41;;;17.80;72.46
13235;BME280;6683;48.506;9.050;2022-10-16T00:25:38;97968.25;;;17.76;72.46
13235;BME280;6683;48.506;9.050;2022-10-16T00:28:41;97965.25;;;17.73;72.44
13235;BME280;6683;48.506;9.050;2022-10-16T00:31:43;97957.13;;;17.68;72.60
13235;BME280;6683;48.506;9.050;2022-10-16T00:34:46;97969.09;;;17.65;72.56
13235;BME280;6683;48.506;9.050;2022-10-16T00:37:48;97967.16;;;17.61;72.34
13235;BME280;6683;48.506;9.050;2022-10-16T00:40:52;97967.84;;;17.56;72.59
13235;BME280;6683;48.506;9.050;2022-10-16T00:43:56;97963.78;;;17.53;72.65
13235;BME280;6683;48.506;9.050;2022-10-16T00:46:59;97962.16;;;17.52;72.85
13235;BME280;6683;48.506;9.050;2022-10-16T00:50:08;97965.06;;;17.51;72.91
13235;BME280;6683;48.506;9.050;2022-10-16T00:53:11;97963.22;;;17.51;72.94
13235;BME280;6683;48.506;9.050;2022-10-16T00:56:16;97966.13;;;17.50;72.92
13235;BME280;6683;48.506;9.050;2022-10-16T00:59:20;97972.47;;;17.49;72.77
13235;BME280;6683;48.506;9.050;2022-10-16T01:02:25;97975.38;;;17.47;72.65
13235;BME280;6683;48.506;9.050;2022-10-16T01:05:32;97983.03;;;17.44;72.77
13235;BME280;6683;48.506;9.050;2022-10-16T01:08:44;97978.19;;;17.41;73.11
13235;BME280;6683;48.506;9.050;2022-10-16T01:12:00;97975.75;;;17.39;72.99
13235;BME280;6683;48.506;9.050;2022-10-16T01:15:10;97980.03;;;17.40;72.91
13235;BME280;6683;48.506;9.050;2022-10-16T01:18:18;97988.03;;;17.40;73.10
13235;BME280;6683;48.506;9.050;2022-10-16T01:21:29;97990.94;;;17.39;72.79
13235;BME280;6683;48.506;9.050;2022-10-16T01:24:39;97986.88;;;17.36;73.16
13235;BME280;6683;48.506;9.050;2022-10-16T01:27:46;97987.94;;;17.35;73.04
13235;BME280;6683;48.506;9.050;2022-10-16T01:30:53;97983.88;;;17.33;73.05
13235;BME280;6683;48.506;9.050;2022-10-16T01:34:01;97977.97;;;17.31;73.27
13235;BME280;6683;48.506;9.050;2022-10-16T01:37:12;97986.75;;;17.31;73.17
13235;BME280;6683;48.506;9.050;2022-10-16T01:40:19;97985.97;;;17.31;73.24
13235;BME280;6683;48.506;9.050;2022-10-16T01:43:28;97985.97;;;17.31;73.08
13235;BME280;6683;48.506;9.050;2022-10-16T01:46:36;97972.16;;;17.34;73.25
13235;BME280;6683;48.506;9.050;2022-10-16T01:49:41;97979.56;;;17.32;73.43
13235;BME280;6683;48.506;9.050;2022-10-16T01:52:49;97984.69;;;17.33;73.35
13235;BME280;6683;48.506;9.050;2022-10-16T01:55:54;97980.97;;;17.34;73.13
13235;BME280;6683;48.506;9.050;2022-10-16T01:59:03;97980.16;;;17.34;73.32
13235;BME280;6683;48.506;9.050;2022-10-16T02:02:09;97978.31;;;17.34;73.37
13235;BME280;6683;48.506;9.050;2022-10-16T02:05:18;97981.78;;;17.35;73.42
13235;BME280;6683;48.506;9.050;2022-10-16T02:08:24;97978.06;;;17.36;73.31
13235;BME280;6683;48.506;9.050;2022-10-16T02:11:29;97986.06;;;17.36;73.29
13235;BME280;6683;48.506;9.050;2022-10-16T02:14:33;97970.88;;;17.36;73.49
13235;BME280;6683;48.506;9.050;2022-10-16T02:17:36;97973.28;;;17.38;73.51
13235;BME280;6683;48.506;9.050;2022-10-16T02:20:45;97969.25;;;17.35;73.39
13235;BME280;6683;48.506;9.050;2022-10-16T02:23:58;97987.69;;;17.37;73.32
13235;BME280;6683;48.506;9.050;2022-10-16T02:27:07;97988.72;;;17.36;73.48
13235;BME280;6683;48.506;9.050;2022-10-16T02:30:19;97992.47;;;17.35;73.39
13235;BME280;6683;48.506;9.050;2022-10-16T02:33:25;97989.78;;;17.35;73.28
13235;BME280;6683;48.506;9.050;2022-10-16T02:36:28;97994.31;;;17.34;73.29
13235;BME280;6683;48.506;9.050;2022-10-16T02:39:32;97989.44;;;17.31;73.46
13235;BME280;6683;48.506;9.050;2022-10-16T02:42:36;97982.72;;;17.29;73.21
13235;BME280;6683;48.506;9.050;2022-10-16T02:45:41;97982.16;;;17.27;73.40
13235;BME280;6683;48.506;9.050;2022-10-16T02:48:44;97993.03;;;17.25;73.12
13235;BME280;6683;48.506;9.050;2022-10-16T02:51:46;97985.50;;;17.22;73.40
13235;BME280;6683;48.506;9.050;2022-10-16T02:54:48;97986.78;;;17.20;73.38
13235;BME280;6683;48.506;9.050;2022-10-16T02:57:50;97988.06;;;17.17;73.40
13235;BME280;6683;48.506;9.050;2022-10-16T03:00:55;97989.56;;;17.13;73.35
13235;BME280;6683;48.506;9.050;2022-10-16T03:03:58;97982.63;;;17.12;73.42
13235;BME280;6683;48.506;9.050;2022-10-16T03:07:00;97980.16;;;17.11;73.31
13235;BME280;6683;48.506;9.050;2022-10-16T03:10:03;97983.91;;;17.10;73.53
13235;BME280;6683;48.506;9.050;2022-10-16T03:13:05;97984.13;;;17.08;73.52
13235;BME280;6683;48.506;9.050;2022-10-16T03:16:09;97989.47;;;17.08;73.53
13235;BME280;6683;48.506;9.050;2022-10-16T03:19:12;97988.41;;;17.09;73.69
13235;BME280;6683;48.506;9.050;2022-10-16T03:22:14;97990.06;;;17.10;73.67
13235;BME280;6683;48.506;9.050;2022-10-16T03:25:16;97988.16;;;17.11;73.73
13235;BME280;6683;48.506;9.050;2022-10-16T03:28:19;97985.75;;;17.09;73.64
13235;BME280;6683;48.506;9.050;2022-10-16T03:31:23;97991.91;;;17.10;73.54
13235;BME280;6683;48.506;9.050;2022-10-16T03:34:26;97984.94;;;17.09;73.53
13235;BME280;6683;48.506;9.050;2022-10-16T03:37:28;97986.81;;;17.08;73.69
13235;BME280;6683;48.506;9.050;2022-10-16T03:40:31;97994.81;;;17.08;73.61
13235;BME280;6683;48.506;9.050;2022-10-16T03:43:33;97988.66;;;17.08;73.49
13235;BME280;6683;48.506;9.050;2022-10-16T03:46:37;97989.94;;;17.05;73.52
13235;BME280;6683;48.506;9.050;2022-10-16T03:49:40;97995.25;;;17.05;73.46
13235;BME280;6683;48.506;9.050;2022-10-16T03:52:42;98000.84;;;17.04;73.48
13235;BME280;6683;48.506;9.050;2022-10-16T03:55:45;98006.16;;;17.04;73.71
13235;BME280;6683;48.506;9.050;2022-10-16T03:58:47;98008.00;;;17.03;73.68
13235;BME280;6683;48.506;9.050;2022-10-16T04:01:51;98006.63;;;17.01;73.71
13235;BME280;6683;48.506;9.050;2022-10-16T04:04:53;98005.78;;;17.00;73.57
13235;BME280;6683;48.506;9.050;2022-10-16T04:07:55;98000.69;;;16.99;73.56
13235;BME280;6683;48.506;9.050;2022-10-16T04:10:57;98003.59;;;16.97;73.44
13235;BME280;6683;48.506;9.050;2022-10-16T04:14:00;98007.31;;;16.96;73.72
13235;BME280;6683;48.506;9.050;2022-10-16T04:17:04;98005.94;;;16.94;73.76
13235;BME280;6683;48.506;9.050;2022-10-16T04:20:07;97999.22;;;16.91;73.54
13235;BME280;6683;48.506;9.050;2022-10-16T04:23:10;98006.63;;;16.89;73.64
13235;BME280;6683;48.506;9.050;2022-10-16T04:26:12;98002.31;;;16.88;73.75
13235;BME280;6683;48.506;9.050;2022-10-16T04:29:14;97999.06;;;16.86;73.52
13235;BME280;6683;48.506;9.050;2022-10-16T04:32:18;98016.13;;;16.85;73.56
13235;BME280;6683;48.506;9.050;2022-10-16T04:35:21;98007.53;;;16.83;73.54
13235;BME280;6683;48.506;9.050;2022-10-16T04:38:24;98008.56;;;16.82;73.86
13235;BME280;6683;48.506;9.050;2022-10-16T04:41:26;98011.25;;;16.82;73.87
13235;BME280;6683;48.506;9.050;2022-10-16T04:44:28;98013.66;;;16.84;73.89
13235;BME280;6683;48.506;9.050;2022-10-16T04:47:32;98018.22;;;16.83;73.94
13235;BME280;6683;48.506;9.050;2022-10-16T04:50:34;98022.72;;;16.83;73.80
13235;BME280;6683;48.506;9.050;2022-10-16T04:53:36;98026.41;;;16.82;73.71
13235;BME280;6683;48.506;9.050;2022-10-16T04:56:39;98021.09;;;16.82;73.96
13235;BME280;6683;48.506;9.050;2022-10-16T04:59:47;98018.41;;;16.82;73.75
13235;BME280;6683;48.506;9.050;2022-10-16T05:02:51;98034.88;;;16.78;73.95
13235;BME280;6683;48.506;9.050;2022-10-16T05:05:54;98038.00;;;16.75;73.86
13235;BME280;6683;48.506;9.050;2022-10-16T05:08:57;98043.56;;;16.74;73.88
13235;BME280;6683;48.506;9.050;2022-10-16T05:11:59;98043.22;;;16.70;73.62
13235;BME280;6683;48.506;9.050;2022-10-16T05:15:02;98047.38;;;16.66;73.83
13235;BME280;6683;48.506;9.050;2022-10-16T05:18:05;98033.94;;;16.61;73.82
13235;BME280;6683;48.506;9.050;2022-10-16T05:21:08;98039.69;;;16.58;73.82
13235;BME280;6683;48.506;9.050;2022-10-16T05:24:10;98039.34;;;16.55;73.86
13235;BME280;6683;48.506;9.050;2022-10-16T05:27:13;98030.78;;;16.53;73.70
13235;BME280;6683;48.506;9.050;2022-10-16T05:30:19;98040.84;;;16.51;74.05
13235;BME280;6683;48.506;9.050;2022-10-16T05:33:25;98036.97;;;16.47;73.90
13235;BME280;6683;48.506;9.050;2022-10-16T05:36:27;98042.75;;;16.44;73.73
13235;BME280;6683;48.506;9.050;2022-10-16T05:39:30;98046.72;;;16.41;73.70
13235;BME280;6683;48.506;9.050;2022-10-16T05:42:32;98054.13;;;16.39;73.99
13235;BME280;6683;48.506;9.050;2022-10-16T05:45:34;98062.53;;;16.36;73.82
13235;BME280;6683;48.506;9.050;2022-10-16T05:48:38;98067.28;;;16.34;74.03
13235;BME280;6683;48.506;9.050;2022-10-16T05:51:41;98055.81;;;16.34;73.95
13235;BME280;6683;48.506;9.050;2022-10-16T05:54:43;98059.53;;;16.33;73.91
13235;BME280;6683;48.506;9.050;2022-10-16T05:57:45;98063.00;;;16.33;74.08
13235;BME280;6683;48.506;9.050;2022-10-16T06:00:54;98067.28;;;16.34;74.36
13235;BME280;6683;48.506;9.050;2022-10-16T06:03:58;98080.38;;;16.36;74.26
13235;BME280;6683;48.506;9.050;2022-10-16T06:07:00;98076.44;;;16.38;74.29
13235;BME280;6683;48.506;9.050;2022-10-16T06:10:05;98078.69;;;16.41;74.27
13235;BME280;6683;48.506;9.050;2022-10-16T06:13:07;98085.19;;;16.45;74.32
13235;BME280;6683;48.506;9.050;2022-10-16T06:16:11;98088.41;;;16.47;74.36
13235;BME280;6683;48.506;9.050;2022-10-16T06:19:15;98081.47;;;16.46;74.15
13235;BME280;6683;48.506;9.050;2022-10-16T06:22:18;98086.59;;;16.48;74.15
13235;BME280;6683;48.506;9.050;2022-10-16T06:25:20;98093.13;;;16.52;74.25
13235;BME280;6683;48.506;9.050;2022-10-16T06:28:22;98093.69;;;16.54;74.17
13235;BME280;6683;48.506;9.050;2022-10-16T06:31:25;98089.53;;;16.58;74.37
13235;BME280;6683;48.506;9.050;2022-10-16T06:34:32;98087.38;;;16.66;74.43
13235;BME280;6683;48.506;9.050;2022-10-16T06:37:34;98101.97;;;16.75;74.38
13235;BME280;6683;48.506;9.050;2022-10-16T06:40:37;98113.13;;;16.84;74.24
13235;BME280;6683;48.506;9.050;2022-10-16T06:43:39;98111.41;;;16.90;74.07
13235;BME280;6683;48.506;9.050;2022-10-16T06:46:41;98123.47;;;16.92;74.29
13235;BME280;6683;48.506;9.050;2022-10-16T06:49:45;98111.28;;;16.96;74.49
13235;BME280;6683;48.506;9.050;2022-10-16T06:52:47;98110.38;;;17.02;74.44
13235;BME280;6683;48.506;9.050;2022-10-16T06:55:50;98120.34;;;17.07;74.25
13235;BME280;6683;48.506;9.050;2022-10-16T06:58:53;98126.84;;;17.11;74.16
13235;BME280;6683;48.506;9.050;2022-10-16T07:01:56;98137.06;;;17.14;74.21
13235;BME280;6683;48.506;9.050;2022-10-16T07:05:00;98136.59;;;17.17;74.39
13235;BME280;6683;48.506;9.050;2022-10-16T07:08:02;98138.81;;;17.20;74.38
13235;BME280;6683;48.506;9.050;2022-10-16T07:11:08;98148.81;;;17.24;74.41
13235;BME280;6683;48.506;9.050;2022-10-16T07:14:16;98153.66;;;17.27;74.55
13235;BME280;6683;48.506;9.050;2022-10-16T07:17:19;98154.16;;;17.36;74.68
13235;BME280;6683;48.506;9.050;2022-10-16T07:20:23;98159.16;;;17.44;74.64
13235;BME280;6683;48.506;9.050;2022-10-16T07:23:25;98165.00;;;17.52;74.44
13235;BME280;6683;48.506;9.050;2022-10-16T07:26:29;98165.69;;;17.60;74.49
13235;BME280;6683;48.506;9.050;2022-10-16T07:29:32;98171.16;;;17.65;74.51
13235;BME280;6683;48.506;9.050;2022-10-16T07:32:35;98178.00;;;17.72;74.39
13235;BME280;6683;48.506;9.050;2022-10-16T07:35:50;98192.06;;;17.79;74.65
13235;BME280;6683;48.506;9.050;2022-10-16T07:38:53;98208.75;;;17.86;74.38
13235;BME280;6683;48.506;9.050;2022-10-16T07:41:55;98205.16;;;17.92;74.29
13235;BME280;6683;48.506;9.050;2022-10-16T07:44:58;98197.84;;;17.99;74.47
13235;BME280;6683;48.506;9.050;2022-10-16T07:48:01;98197.97;;;18.04;74.55
13235;BME280;6683;48.506;9.050;2022-10-16T07:51:06;98203.16;;;18.11;74.66
13235;BME280;6683;48.506;9.050;2022-10-16T07:54:09;98198.88;;;18.21;74.83
13235;BME280;6683;48.506;9.050;2022-10-16T07:57:11;98202.34;;;18.33;74.84
13235;BME280;6683;48.506;9.050;2022-10-16T08:00:19;98213.84;;;18.46;74.71
13235;BME280;6683;48.506;9.050;2022-10-16T08:03:21;98216.16;;;18.54;74.34
13235;BME280;6683;48.506;9.050;2022-10-16T08:06:25;98213.34;;;18.60;74.41
13235;BME280;6683;48.506;9.050;2022-10-16T08:09:28;98204.38;;;18.66;74.41
13235;BME280;6683;48.506;9.050;2022-10-16T08:12:30;98193.31;;;18.74;74.20
13235;BME280;6683;48.506;9.050;2022-10-16T08:15:33;98203.16;;;18.85;74.63
13235;BME280;6683;48.506;9.050;2022-10-16T08:18:36;98215.44;;;18.98;74.43
13235;BME280;6683;48.506;9.050;2022-10-16T08:21:40;98213.50;;;19.10;74.39
13235;BME280;6683;48.506;9.050;2022-10-16T08:24:42;98218.22;;;19.20;74.33
13235;BME280;6683;48.506;9.050;2022-10-16T08:27:44;98209.06;;;19.32;74.43
13235;BME280;6683;48.506;9.050;2022-10-16T08:30:47;98215.19;;;19.44;74.28
13235;BME280;6683;48.506;9.050;2022-10-16T08:33:50;98230.63;;;19.54;74.36
13235;BME280;6683;48.506;9.050;2022-10-16T08:36:54;98225.44;;;19.64;74.20
13235;BME280;6683;48.506;9.050;2022-10-16T08:39:57;98234.69;;;19.73;73.93
13235;BME280;6683;48.506;9.050;2022-10-16T08:43:16;98239.91;;;19.79;73.96
13235;BME280;6683;48.506;9.050;2022-10-16T08:46:38;98237.59;;;19.88;74.01
13235;BME280;6683;48.506;9.050;2022-10-16T08:49:56;98235.88;;;19.99;74.09
13235;BME280;6683;48.506;9.050;2022-10-16T08:53:00;98242.22;;;20.09;73.65
13235;BME280;6683;48.506;9.050;2022-10-16T08:56:03;98232.13;;;20.16;73.66
13235;BME280;6683;48.506;9.050;2022-10-16T08:59:10;98239.22;;;20.22;73.64
13235;BME280;6683;48.506;9.050;2022-10-16T09:02:27;98245.53;;;20.33;73.81
13235;BME280;6683;48.506;9.050;2022-10-16T09:05:48;98244.94;;;20.47;73.90
13235;BME280;6683;48.506;9.050;2022-10-16T09:09:08;98255.34;;;20.65;73.56
13235;BME280;6683;48.506;9.050;2022-10-16T09:12:19;98254.22;;;20.83;73.30
13235;BME280;6683;48.506;9.050;2022-10-16T09:15:31;98254.50;;;21.03;73.21
13235;BME280;6683;48.506;9.050;2022-10-16T09:18:39;98250.16;;;21.24;72.91
13235;BME280;6683;48.506;9.050;2022-10-16T09:21:45;98251.97;;;21.45;72.60
13235;BME280;6683;48.506;9.050;2022-10-16T09:24:50;98260.22;;;21.65;72.33
13235;BME280;6683;48.506;9.050;2022-10-16T09:27:53;98263.84;;;21.81;72.19
13235;BME280;6683;48.506;9.050;2022-10-16T09:30:56;98268.28;;;21.92;71.57
13235;BME280;6683;48.506;9.050;2022-10-16T09:34:01;98264.13;;;22.11;72.00
13235;BME280;6683;48.506;9.050;2022-10-16T09:37:12;98252.53;;;23.09;71.30
13235;BME280;6683;48.506;9.050;2022-10-16T09:40:26;98258.84;;;23.65;70.53
13235;BME280;6683;48.506;9.050;2022-10-16T09:43:36;98264.25;;;23.80;69.56
13235;BME280;6683;48.506;9.050;2022-10-16T09:46:41;98253.19;;;23.71;69.12
13235;BME280;6683;48.506;9.050;2022-10-16T09:49:51;98252.38;;;23.61;69.23
13235;BME280;6683;48.506;9.050;2022-10-16T09:53:08;98254.50;;;23.54;68.96
13235;BME280;6683;48.506;9.050;2022-10-16T09:56:23;98260.69;;;23.49;69.06
13235;BME280;6683;48.506;9.050;2022-10-16T09:59:26;98261.78;;;23.43;68.48
13235;BME280;6683;48.506;9.050;2022-10-16T10:02:35;98276.00;;;23.29;67.65
13235;BME280;6683;48.506;9.050;2022-10-16T10:05:39;98266.81;;;23.15;68.14
13235;BME280;6683;48.506;9.050;2022-10-16T10:08:57;98271.34;;;23.04;68.28
13235;BME280;6683;48.506;9.050;2022-10-16T10:12:03;98268.91;;;23.08;68.11
13235;BME280;6683;48.506;9.050;2022-10-16T10:15:10;98262.06;;;23.57;68.89
13235;BME280;6683;48.506;9.050;2022-10-16T10:18:18;98267.91;;;24.59;67.78
13235;BME280;6683;48.506;9.050;2022-10-16T10:21:22;98257.56;;;25.51;66.46
13235;BME280;6683;48.506;9.050;2022-10-16T10:24:25;98259.81;;;26.63;64.98
13235;BME280;6683;48.506;9.050;2022-10-16T10:27:38;98258.75;;;28.00;63.64
13235;BME280;6683;48.506;9.050;2022-10-16T10:30:49;98249.59;;;29.23;61.99
13235;BME280;6683;48.506;9.050;2022-10-16T10:34:02;98249.66;;;30.64;59.56
13235;BME280;6683;48.506;9.050;2022-10-16T10:37:37;98230.88;;;32.05;57.66
13235;BME280;6683;48.506;9.050;2022-10-16T10:40:50;98227.31;;;33.26;56.10
13235;BME280;6683;48.506;9.050;2022-10-16T10:44:05;98232.91;;;34.24;53.64
13235;BME280;6683;48.506;9.050;2022-10-16T10:47:20;98234.81;;;35.17;52.65
13235;BME280;6683;48.506;9.050;2022-10-16T10:50:32;98226.59;;;35.96;50.65
13235;BME280;6683;48.506;9.050;2022-10-16T10:53:44;98222.84;;;36.63;48.72
13235;BME280;6683;48.506;9.050;2022-10-16T10:56:57;98231.69;;;37.04;47.94
13235;BME280;6683;48.506;9.050;2022-10-16T11:00:16;98228.47;;;37.52;47.01
13235;BME280;6683;48.506;9.050;2022-10-16T11:03:35;98230.41;;;38.09;46.54
13235;BME280;6683;48.506;9.050;2022-10-16T11:06:47;98218.78;;;38.19;46.25
13235;BME280;6683;48.506;9.050;2022-10-16T11:09:53;98225.13;;;38.42;45.10
13235;BME280;6683;48.506;9.050;2022-10-16T11:13:15;98220.25;;;38.81;44.58
13235;BME280;6683;48.506;9.050;2022-10-16T11:16:26;98211.00;;;38.92;43.09
13235;BME280;6683;48.506;9.050;2022-10-16T11:19:37;98215.91;;;39.06;41.66
13235;BME280;6683;48.506;9.050;2022-10-16T11:22:45;98217.06;;;38.79;41.57
13235;BME280;6683;48.506;9.050;2022-10-16T11:25:49;98213.03;;;38.73;40.55
13235;BME280;6683;48.506;9.050;2022-10-16T11:28:55;98208.69;;;38.72;40.26
13235;BME280;6683;48.506;9.050;2022-10-16T11:32:11;98203.91;;;38.46;39.39
13235;BME280;6683;48.506;9.050;2022-10-16T11:35:22;98201.00;;;38.16;39.18
13235;BME280;6683;48.506;9.050;2022-10-16T11:38:30;98200.34;;;38.23;39.37
13235;BME280;6683;48.506;9.050;2022-10-16T11:41:39;98202.88;;;38.31;39.08
13235;BME280;6683;48.506;9.050;2022-10-16T11:44:53;98192.06;;;38.46;38.37
13235;BME280;6683;48.506;9.050;2022-10-16T11:48:07;98198.91;;;38.10;38.77
13235;BME280;6683;48.506;9.050;2022-10-16T11:51:19;98190.81;;;37.98;39.12
13235;BME280;6683;48.506;9.050;2022-10-16T11:54:33;98191.50;;;38.14;38.27
13235;BME280;6683;48.506;9.050;2022-10-16T11:57:43;98191.63;;;37.98;38.32
13235;BME280;6683;48.506;9.050;2022-10-16T12:00:53;98189.47;;;37.88;37.58
13235;BME280;6683;48.506;9.050;2022-10-16T12:04:12;98188.81;;;37.76;37.62
13235;BME280;6683;48.506;9.050;2022-10-16T12:07:21;98187.44;;;36.77;38.25
13235;BME280;6683;48.506;9.050;2022-10-16T12:10:28;98185.09;;;35.74;38.62
13235;BME280;6683;48.506;9.050;2022-10-16T12:13:34;98193.53;;;35.13;39.62
13235;BME280;6683;48.506;9.050;2022-10-16T12:16:38;98186.44;;;35.12;38.99
13235;BME280;6683;48.506;9.050;2022-10-16T12:19:42;98189.88;;;34.97;39.07
13235;BME280;6683;48.506;9.050;2022-10-16T12:22:49;98198.09;;;34.25;39.46
13235;BME280;6683;48.506;9.050;2022-10-16T12:25:55;98182.13;;;33.41;40.78
13235;BME280;6683;48.506;9.050;2022-10-16T12:29:14;98192.97;;;32.58;41.62
13235;BME280;6683;48.506;9.050;2022-10-16T12:32:30;98191.69;;;32.09;42.79
13235;BME280;6683;48.506;9.050;2022-10-16T12:35:43;98183.88;;;31.65;43.36
13235;BME280;6683;48.506;9.050;2022-10-16T12:38:47;98182.44;;;31.16;43.64
13235;BME280;6683;48.506;9.050;2022-10-16T12:42:02;98186.97;;;30.64;44.29
13235;BME280;6683;48.506;9.050;2022-10-16T12:45:26;98185.97;;;30.21;45.27
13235;BME280;6683;48.506;9.050;2022-10-16T12:48:29;98190.94;;;29.88;45.42
13235;BME280;6683;48.506;9.050;2022-10-16T12:51:36;98181.91;;;29.57;45.68
13235;BME280;6683;48.506;9.050;2022-10-16T12:54:39;98178.16;;;29.31;46.21
13235;BME280;6683;48.506;9.050;2022-10-16T12:58:00;98181.16;;;29.07;46.67
13235;BME280;6683;48.506;9.050;2022-10-16T13:01:17;98186.41;;;28.90;47.45
13235;BME280;6683;48.506;9.050;2022-10-16T13:04:40;98193.47;;;28.78;47.56
13235;BME280;6683;48.506;9.050;2022-10-16T13:07:57;98189.66;;;28.65;47.68
13235;BME280;6683;48.506;9.050;2022-10-16T13:11:10;98197.31;;;28.50;48.14
13235;BME280;6683;48.506;9.050;2022-10-16T13:14:53;98191.03;;;28.35;48.63
13235;BME280;6683;48.506;9.050;2022-10-16T13:18:05;98193.25;;;28.20;48.76
13235;BME280;6683;48.506;9.050;2022-10-16T13:21:26;98197.06;;;28.05;49.27
13235;BME280;6683;48.506;9.050;2022-10-16T13:24:50;98198.31;;;27.94;49.56
13235;BME280;6683;48.506;9.050;2022-10-16T13:28:00;98202.78;;;27.85;49.76
13235;BME280;6683;48.506;9.050;2022-10-16T13:31:03;98197.78;;;27.79;49.91
13235;BME280;6683;48.506;9.050;2022-10-16T13:34:13;98205.47;;;27.72;50.58
13235;BME280;6683;48.506;9.050;2022-10-16T13:37:24;98203.84;;;27.70;50.25
13235;BME280;6683;48.506;9.050;2022-10-16T13:40:29;98202.25;;;27.69;49.75
13235;BME280;6683;48.506;9.050;2022-10-16T13:43:35;98199.34;;;27.66;49.62
13235;BME280;6683;48.506;9.050;2022-10-16T13:46:38;98200.50;;;27.60;49.86
13235;BME280;6683;48.506;9.050;2022-10-16T13:49:40;98200.91;;;27.53;49.87
13235;BME280;6683;48.506;9.050;2022-10-16T13:52:43;98202.88;;;27.48;50.51
13235;BME280;6683;48.506;9.050;2022-10-16T13:55:47;98196.13;;;27.45;50.68
13235;BME280;6683;48.506;9.050;2022-10-16T13:58:59;98196.72;;;27.42;50.82
13235;BME280;6683;48.506;9.050;2022-10-16T14:02:16;98202.16;;;27.42;51.38
13235;BME280;6683;48.506;9.050;2022-10-16T14:05:21;98206.78;;;27.42;51.25
13235;BME280;6683;48.506;9.050;2022-10-16T14:08:25;98200.03;;;27.39;51.05
13235;BME280;6683;48.506;9.050;2022-10-16T14:11:30;98205.25;;;27.36;51.61
13235;BME280;6683;48.506;9.050;2022-10-16T14:14:40;98200.13;;;27.34;51.93
13235;BME280;6683;48.506;9.050;2022-10-16T14:17:48;98210.13;;;27.34;52.52
13235;BME280;6683;48.506;9.050;2022-10-16T14:20:52;98207.19;;;27.30;52.40
13235;BME280;6683;48.506;9.050;2022-10-16T14:23:54;98201.53;;;27.27;52.43
13235;BME280;6683;48.506;9.050;2022-10-16T14:27:00;98209.47;;;27.23;52.65
13235;BME280;6683;48.506;9.050;2022-10-16T14:30:18;98211.16;;;27.19;52.53
13235;BME280;6683;48.506;9.050;2022-10-16T14:33:24;98205.50;;;27.16;52.93
13235;BME280;6683;48.506;9.050;2022-10-16T14:36:28;98213.03;;;27.19;52.43
13235;BME280;6683;48.506;9.050;2022-10-16T14:39:31;98207.13;;;27.17;52.62
13235;BME280;6683;48.506;9.050;2022-10-16T14:42:35;98220.16;;;27.15;52.83
13235;BME280;6683;48.506;9.050;2022-10-16T14:45:37;98221.53;;;27.12;53.33
13235;BME280;6683;48.506;9.050;2022-10-16T14:48:43;98220.75;;;27.12;53.23
13235;BME280;6683;48.506;9.050;2022-10-16T14:51:48;98223.16;;;27.13;53.08
13235;BME280;6683;48.506;9.050;2022-10-16T14:54:51;98222.88;;;27.15;53.21
13235;BME280;6683;48.506;9.050;2022-10-16T14:57:57;98223.97;;;27.14;53.20
13235;BME280;6683;48.506;9.050;2022-10-16T15:00:59;98221.84;;;27.11;53.27
13235;BME280;6683;48.506;9.050;2022-10-16T15:04:02;98220.88;;;27.02;53.14
13235;BME280;6683;48.506;9.050;2022-10-16T15:07:06;98226.44;;;26.91;53.33
13235;BME280;6683;48.506;9.050;2022-10-16T15:10:09;98228.75;;;26.79;53.50
13235;BME280;6683;48.506;9.050;2022-10-16T15:13:14;98231.84;;;26.68;53.52
13235;BME280;6683;48.506;9.050;2022-10-16T15:16:17;98224.66;;;26.58;53.55
13235;BME280;6683;48.506;9.050;2022-10-16T15:19:19;98222.56;;;26.50;53.56
13235;BME280;6683;48.506;9.050;2022-10-16T15:22:21;98225.41;;;26.40;54.06
13235;BME280;6683;48.506;9.050;2022-10-16T15:25:34;98229.31;;;26.29;54.97
13235;BME280;6683;48.506;9.050;2022-10-16T15:28:38;98229.38;;;26.24;54.95
13235;BME280;6683;48.506;9.050;2022-10-16T15:31:41;98228.59;;;26.19;54.70
13235;BME280;6683;48.506;9.050;2022-10-16T15:34:43;98230.84;;;26.11;55.35
13235;BME280;6683;48.506;9.050;2022-10-16T15:37:47;98224.41;;;26.02;55.49
13235;BME280;6683;48.506;9.050;2022-10-16T15:40:50;98230.97;;;25.91;55.74
13235;BME280;6683;48.506;9.050;2022-10-16T15:43:54;98230.56;;;25.79;55.86
13235;BME280;6683;48.506;9.050;2022-10-16T15:46:56;98232.00;;;25.67;56.43
13235;BME280;6683;48.506;9.050;2022-10-16T15:49:59;98232.38;;;25.55;56.53
13235;BME280;6683;48.506;9.050;2022-10-16T15:53:01;98238.41;;;25.42;56.78
13235;BME280;6683;48.506;9.050;2022-10-16T15:56:05;98243.06;;;25.26;57.26
13235;BME280;6683;48.506;9.050;2022-10-16T15:59:10;98255.88;;;25.11;57.32
13235;BME280;6683;48.506;9.050;2022-10-16T16:02:12;98252.41;;;24.95;57.60
13235;BME280;6683;48.506;9.050;2022-10-16T16:05:15;98256.28;;;24.79;57.95
13235;BME280;6683;48.506;9.050;2022-10-16T16:08:17;98261.97;;;24.63;58.41
13235;BME280;6683;48.506;9.050;2022-10-16T16:11:20;98253.66;;;24.44;58.59
13235;BME280;6683;48.506;9.050;2022-10-16T16:14:25;98260.19;;;24.28;59.11
13235;BME280;6683;48.506;9.050;2022-10-16T16:17:29;98263.72;;;24.13;59.60
13235;BME280;6683;48.506;9.050;2022-10-16T16:20:32;98265.28;;;23.99;59.75
13235;BME280;6683;48.506;9.050;2022-10-16T16:23:34;98273.66;;;23.88;60.17
13235;BME280;6683;48.506;9.050;2022-10-16T16:26:37;98262.34;;;23.75;60.46
13235;BME280;6683;48.506;9.050;2022-10-16T16:29:45;98264.22;;;23.65;60.80
13235;BME280;6683;48.506;9.050;2022-10-16T16:32:48;98258.03;;;23.54;60.95
13235;BME280;6683;48.506;9.050;2022-10-16T16:35:50;98260.41;;;23.41;61.19
13235;BME280;6683;48.506;9.050;2022-10-16T16:38:52;98265.22;;;23.29;61.41